Anatife — FGE8389 — position and weather

sailwx.info

Track history (hours):
 
Tides and Currents Weather Stations Pressure Air Temp Water Temp Dewpoint Dewpoint Depression Visibility Wind Speed Wind Dir Waves Ship Positions

Anatife

Last reported at 2017-May-24 19:26 UTC. Time now 2017-May-27 08:06 UTC.
Position N 47°18' W 002°05'.

Length 41 m; draft 2 m.

Type: Tanker. MMSI: 227681520.

Date/timePositionNaut miles runAvg speedWind from/ knotsBaromVisibWave heightAir tempDewpointWater temp
2017-May-24 19:26N 47°18' W 002°05'0 0.0
2017-May-24 19:00N 47°18' W 002°05'0 0.0
2017-May-24 18:31N 47°18' W 002°05'0 0.0
2017-May-24 18:00N 47°18' W 002°05'0 0.8
2017-May-24 17:30N 47°18' W 002°05'4 7.6
2017-May-24 17:00N 47°17' W 002°11'4 8.4
2017-May-24 16:30N 47°14' W 002°15'12 7.6
2017-May-24 14:57N 47°14' W 002°33'1111.1
2017-May-24 14:00N 47°16' W 002°48'510.2
2017-May-24 13:30N 47°18' W 002°55'510.5
2017-May-24 13:00N 47°20' W 003°02'5 9.9
2017-May-24 12:30N 47°21' W 003°09'0 0.0
2017-May-24 09:57N 47°21' W 003°09'0 0.0
2017-May-24 09:24N 47°21' W 003°09'0 0.0
2017-May-24 09:00N 47°21' W 003°09'0 0.0
2017-May-24 08:24N 47°21' W 003°09'0 0.0
2017-May-24 00:06N 47°21' W 003°09'0 0.9
2017-May-24 00:00N 47°21' W 003°09'1 2.4
2017-May-23 23:31N 47°21' W 003°08'0 0.2
2017-May-23 23:00N 47°21' W 003°08'0 0.0
2017-May-23 22:30N 47°21' W 003°08'0 0.0
2017-May-23 22:00N 47°21' W 003°08'0 0.0
2017-May-23 21:30N 47°21' W 003°08'0 0.0
2017-May-23 21:00N 47°21' W 003°08'0 0.0
2017-May-23 20:31N 47°21' W 003°08'0 0.0
2017-May-23 20:00N 47°21' W 003°08'0 0.0
2017-May-23 19:30N 47°21' W 003°08'2 3.8
2017-May-23 19:00N 47°20' W 003°05'510.3
2017-May-23 18:30N 47°19' W 002°58'510.7
2017-May-23 18:00N 47°17' W 002°50'510.2
2017-May-23 17:30N 47°15' W 002°43'510.5
2017-May-23 17:00N 47°14' W 002°36'510.1
2017-May-23 16:29N 47°13' W 002°28'510.2
2017-May-23 16:00N 47°13' W 002°21'7 9.8
2017-May-23 15:16N 47°16' W 002°12'310.3
2017-May-23 14:58N 47°18' W 002°08'2 2.2
2017-May-23 14:00N 47°18' W 002°05'0 0.0
2017-May-23 13:30N 47°18' W 002°05'0 0.0
2017-May-23 13:00N 47°18' W 002°05'0 0.0
2017-May-23 12:31N 47°18' W 002°05'0 0.0
2017-May-23 12:00N 47°18' W 002°05'0 0.0
2017-May-23 11:30N 47°18' W 002°05'0 0.0
2017-May-23 11:00N 47°18' W 002°05'0 0.0
2017-May-23 10:30N 47°18' W 002°05'0 0.0
2017-May-23 10:00N 47°18' W 002°05'0 0.0
2017-May-23 09:30N 47°18' W 002°05'0 0.0
2017-May-23 09:00N 47°18' W 002°05'0 0.0
2017-May-23 08:30N 47°18' W 002°05'0 0.0
2017-May-23 08:01N 47°18' W 002°05'0 0.0
2017-May-23 07:30N 47°18' W 002°05'0 0.0
2017-May-23 07:01N 47°18' W 002°05'0 0.0
2017-May-23 06:30N 47°18' W 002°05'0 0.0
2017-May-23 06:00N 47°18' W 002°05'0 0.0
2017-May-23 05:30N 47°18' W 002°05'0 0.0
2017-May-23 05:00N 47°18' W 002°05'0 0.0
2017-May-23 04:31N 47°18' W 002°05'  
Track history (hours):
 
Tides and Currents Weather Stations Pressure Air Temp Water Temp Dewpoint Dewpoint Depression Visibility Wind Speed Wind Dir Waves Ship Positions

Anatife

Last reported at 2017-May-24 19:26 UTC. Time now 2017-May-27 08:06 UTC.
Position N 47°18' W 002°05'.

Length 41 m; draft 2 m.

Type: Tanker. MMSI: 227681520.

Date/timePositionNaut miles runAvg speedWind from/ knotsBaromVisibWave heightAir tempDewpointWater temp
2017-May-24 19:26N 47°18' W 002°05'0 0.0
2017-May-24 19:00N 47°18' W 002°05'0 0.0
2017-May-24 18:31N 47°18' W 002°05'0 0.0
2017-May-24 18:00N 47°18' W 002°05'0 0.8
2017-May-24 17:30N 47°18' W 002°05'4 7.6
2017-May-24 17:00N 47°17' W 002°11'4 8.4
2017-May-24 16:30N 47°14' W 002°15'12 7.6
2017-May-24 14:57N 47°14' W 002°33'1111.1
2017-May-24 14:00N 47°16' W 002°48'510.2
2017-May-24 13:30N 47°18' W 002°55'510.5
2017-May-24 13:00N 47°20' W 003°02'5 9.9
2017-May-24 12:30N 47°21' W 003°09'0 0.0
2017-May-24 09:57N 47°21' W 003°09'0 0.0
2017-May-24 09:24N 47°21' W 003°09'0 0.0
2017-May-24 09:00N 47°21' W 003°09'0 0.0
2017-May-24 08:24N 47°21' W 003°09'0 0.0
2017-May-24 00:06N 47°21' W 003°09'0 0.9
2017-May-24 00:00N 47°21' W 003°09'1 2.4
2017-May-23 23:31N 47°21' W 003°08'0 0.2
2017-May-23 23:00N 47°21' W 003°08'0 0.0
2017-May-23 22:30N 47°21' W 003°08'0 0.0
2017-May-23 22:00N 47°21' W 003°08'0 0.0
2017-May-23 21:30N 47°21' W 003°08'0 0.0
2017-May-23 21:00N 47°21' W 003°08'0 0.0
2017-May-23 20:31N 47°21' W 003°08'0 0.0
2017-May-23 20:00N 47°21' W 003°08'0 0.0
2017-May-23 19:30N 47°21' W 003°08'2 3.8
2017-May-23 19:00N 47°20' W 003°05'510.3
2017-May-23 18:30N 47°19' W 002°58'510.7
2017-May-23 18:00N 47°17' W 002°50'510.2
2017-May-23 17:30N 47°15' W 002°43'510.5
2017-May-23 17:00N 47°14' W 002°36'510.1
2017-May-23 16:29N 47°13' W 002°28'510.2
2017-May-23 16:00N 47°13' W 002°21'7 9.8
2017-May-23 15:16N 47°16' W 002°12'310.3
2017-May-23 14:58N 47°18' W 002°08'2 2.2
2017-May-23 14:00N 47°18' W 002°05'0 0.0
2017-May-23 13:30N 47°18' W 002°05'0 0.0
2017-May-23 13:00N 47°18' W 002°05'0 0.0
2017-May-23 12:31N 47°18' W 002°05'0 0.0
2017-May-23 12:00N 47°18' W 002°05'0 0.0
2017-May-23 11:30N 47°18' W 002°05'0 0.0
2017-May-23 11:00N 47°18' W 002°05'0 0.0
2017-May-23 10:30N 47°18' W 002°05'0 0.0
2017-May-23 10:00N 47°18' W 002°05'0 0.0
2017-May-23 09:30N 47°18' W 002°05'0 0.0
2017-May-23 09:00N 47°18' W 002°05'0 0.0
2017-May-23 08:30N 47°18' W 002°05'0 0.0
2017-May-23 08:01N 47°18' W 002°05'0 0.0
2017-May-23 07:30N 47°18' W 002°05'0 0.0
2017-May-23 07:01N 47°18' W 002°05'0 0.0
2017-May-23 06:30N 47°18' W 002°05'0 0.0
2017-May-23 06:00N 47°18' W 002°05'0 0.0
2017-May-23 05:30N 47°18' W 002°05'0 0.0
2017-May-23 05:00N 47°18' W 002°05'0 0.0
2017-May-23 04:31N 47°18' W 002°05'  

Dump ship's entire track history